Strona główna
METAR-TAF:

METAR-TAF

Lotnisko :

Vannes, Francja

Szerokość geograficzna: 47-43-19N, Długość geograficzna: 2-43-41W, wysokość: 130 m

Aktualna obserwacja pogody

Raport powstał 26 minut temu, godzina 11:30 UTC
Wiatr 15 kt od zachodnio-południowy zachód, zmienny między południowo-południowy zachód i zachód
Temperatura 11°C
Wilgotność 94%
Ciśnienie 1020 hPa
Widzialność 10 km lub więcej
Przerywane chmury na wysokości 700 ft
Zachmurzenie całkowite na wysokości 1500 ft

METAR: LFRV 241130Z AUTO 24015KT 200V270 9999 BKN007 OVC015 11/10 Q1020

czas: 12:56 (11:56 UTC)


TAF: brakujący

Obserwacja i prognoza pogody dla ponad 4000 lotnisk (raport METAR i TAF).

Dostępne stacje oznaczono żółtymi i czerwonymi punktami na mapie.

Najedź kursorem aby zobaczyć nazwę stacji.

Kliknij aby zobaczyć obserwacje i prognozy pogody.

Aby zmienić mapę: kliknij na zielony przycisk z czarnym krzyżykiem, aby powiększyć; na zielony przycisk z myślnikiem, aby pomniejszyć; na zielone strzałki, aby przejść do map sąsiednich.


METAR-TAF: